Time;durP1;ratioP1;P1;durP2;ratioP2;P2;SDS_P1;SDS_P2;PMS_P1;PMS_P2;Temp;Humidity;BMP_temperature;BMP_pressure;BME280_temperature;BME280_humidity;BME280_pressure;Samples;Min_cycle;Max_cycle;Signal;HPM_P1;HPM_P2
2022/03/26 00:00:30;;;;;;;80.27;38.13;;;;;;;;;;5112796;28;20923;-60
2022/03/26 00:02:56;;;;;;;68.77;36.13;;;;;;;;;;5112914;28;20492;-61
2022/03/26 00:05:23;;;;;;;71.17;37.80;;;;;;;;;;5112913;28;20496;-59
2022/03/26 00:07:49;;;;;;;84.27;38.57;;;;;;;;;;5112700;28;20459;-61
2022/03/26 00:10:18;;;;;;;71.03;36.90;;;;;;;;;;5112816;28;20412;-60
2022/03/26 00:12:44;;;;;;;70.10;36.40;;;;;;;;;;5112854;28;20515;-59
2022/03/26 00:15:10;;;;;;;69.23;37.47;;;;;;;;;;5112728;28;20944;-60
2022/03/26 00:17:37;;;;;;;84.67;39.20;;;;;;;;;;5112886;28;20765;-61
2022/03/26 00:20:04;;;;;;;86.50;38.80;;;;;;;;;;5094414;28;20464;-59
2022/03/26 00:22:30;;;;;;;81.23;39.60;;;;;;;;;;5112805;28;20760;-59
2022/03/26 00:24:56;;;;;;;69.60;37.90;;;;;;;;;;5094651;28;20515;-56
2022/03/26 00:27:22;;;;;;;87.77;39.73;;;;;;;;;;5112813;28;20504;-60
2022/03/26 00:29:48;;;;;;;80.43;38.60;;;;;;;;;;5112846;28;20413;-60
2022/03/26 00:32:15;;;;;;;75.93;38.80;;;;;;;;;;5112851;28;20468;-58
2022/03/26 00:34:44;;;;;;;70.80;37.10;;;;;;;;;;5112636;28;20465;-55
2022/03/26 00:37:11;;;;;;;76.47;38.00;;;;;;;;;;5112500;28;20486;-54
2022/03/26 00:39:39;;;;;;;72.13;38.13;;;;;;;;;;5112613;28;20474;-57
2022/03/26 00:42:05;;;;;;;73.67;38.83;;;;;;;;;;5094272;28;20424;-56
2022/03/26 00:44:31;;;;;;;80.60;36.03;;;;;;;;;;5114458;28;20488;-56
2022/03/26 00:46:57;;;;;;;78.33;39.13;;;;;;;;;;5116326;28;20432;-53
2022/03/26 00:49:23;;;;;;;74.60;37.23;;;;;;;;;;5116318;28;20465;-54
2022/03/26 00:51:49;;;;;;;78.30;36.10;;;;;;;;;;5116191;28;20449;-56
2022/03/26 00:54:15;;;;;;;71.23;35.40;;;;;;;;;;5116143;28;20439;-58
2022/03/26 00:56:41;;;;;;;81.47;37.87;;;;;;;;;;5115932;28;20471;-52
2022/03/26 00:59:10;;;;;;;70.93;36.40;;;;;;;;;;5116096;28;20410;-56
2022/03/26 01:01:36;;;;;;;85.07;38.57;;;;;;;;;;5097752;28;20413;-54
2022/03/26 01:04:03;;;;;;;70.53;36.97;;;;;;;;;;5115969;28;20905;-54
2022/03/26 01:06:29;;;;;;;70.43;35.40;;;;;;;;;;5115872;28;20405;-55
2022/03/26 01:08:55;;;;;;;70.70;35.47;;;;;;;;;;5116068;28;20400;-56
2022/03/26 01:11:21;;;;;;;85.70;35.50;;;;;;;;;;5115822;28;20500;-55
2022/03/26 01:13:48;;;;;;;68.40;35.80;;;;;;;;;;5097525;28;20838;-53
2022/03/26 01:16:17;;;;;;;68.33;35.87;;;;;;;;;;5115665;28;20503;-54
2022/03/26 01:18:43;;;;;;;72.50;35.80;;;;;;;;;;5115466;28;20449;-56
2022/03/26 01:21:12;;;;;;;74.90;35.37;;;;;;;;;;5115636;28;20818;-57
2022/03/26 01:23:38;;;;;;;85.63;35.47;;;;;;;;;;5115645;28;20444;-54
2022/03/26 01:26:04;;;;;;;73.00;35.80;;;;;;;;;;5097219;28;20766;-56
2022/03/26 01:28:30;;;;;;;68.83;35.23;;;;;;;;;;5115529;28;20462;-54
2022/03/26 01:30:57;;;;;;;66.30;34.80;;;;;;;;;;5115592;28;20990;-59
2022/03/26 01:33:23;;;;;;;78.47;36.73;;;;;;;;;;5115615;28;20409;-54
2022/03/26 01:35:49;;;;;;;76.03;35.77;;;;;;;;;;5096818;28;20537;-55
2022/03/26 01:38:15;;;;;;;71.80;35.77;;;;;;;;;;5115192;28;20950;-54
2022/03/26 01:40:42;;;;;;;68.70;33.60;;;;;;;;;;5115156;28;20909;-57
2022/03/26 01:43:08;;;;;;;72.00;34.87;;;;;;;;;;5115112;28;20777;-53
2022/03/26 01:45:34;;;;;;;65.13;33.83;;;;;;;;;;5114993;28;20421;-54
2022/03/26 01:48:00;;;;;;;78.17;35.60;;;;;;;;;;5115052;28;20499;-56
2022/03/26 01:50:28;;;;;;;69.77;34.70;;;;;;;;;;5115272;28;20401;-58
2022/03/26 01:52:54;;;;;;;59.83;32.20;;;;;;;;;;5115318;28;20401;-55
2022/03/26 01:55:21;;;;;;;68.10;33.40;;;;;;;;;;5114086;28;20452;-54
2022/03/26 01:57:48;;;;;;;68.73;33.27;;;;;;;;;;5096566;28;20416;-55
2022/03/26 02:00:14;;;;;;;71.33;32.93;;;;;;;;;;5114800;28;20493;-59
2022/03/26 02:02:44;;;;;;;69.33;35.03;;;;;;;;;;5114881;28;20420;-56
2022/03/26 02:05:11;;;;;;;67.23;34.23;;;;;;;;;;5114712;28;20400;-56
2022/03/26 02:07:38;;;;;;;68.43;33.20;;;;;;;;;;5114655;28;20409;-56
2022/03/26 02:10:05;;;;;;;90.33;33.27;;;;;;;;;;5114478;28;20428;-57
2022/03/26 02:12:31;;;;;;;61.00;31.47;;;;;;;;;;5114371;28;20416;-56
2022/03/26 02:14:57;;;;;;;63.53;31.60;;;;;;;;;;5114672;28;20465;-56
2022/03/26 02:17:24;;;;;;;68.57;32.33;;;;;;;;;;5114651;28;20897;-56
2022/03/26 02:19:50;;;;;;;61.77;31.63;;;;;;;;;;5114378;28;20538;-54
2022/03/26 02:22:16;;;;;;;67.63;32.43;;;;;;;;;;5114511;28;20397;-54
2022/03/26 02:24:45;;;;;;;68.07;34.53;;;;;;;;;;5114372;28;20412;-54
2022/03/26 02:27:11;;;;;;;59.53;31.90;;;;;;;;;;5114398;28;20416;-55
2022/03/26 02:29:37;;;;;;;67.63;33.50;;;;;;;;;;5095996;28;20428;-53
2022/03/26 02:32:03;;;;;;;63.93;33.10;;;;;;;;;;5114246;28;20823;-55
2022/03/26 02:34:29;;;;;;;63.90;32.47;;;;;;;;;;5114158;28;20420;-59
2022/03/26 02:36:55;;;;;;;82.30;33.53;;;;;;;;;;5114231;28;21002;-59
2022/03/26 02:39:21;;;;;;;73.83;33.50;;;;;;;;;;5095997;28;20409;-54
2022/03/26 02:41:48;;;;;;;65.17;32.53;;;;;;;;;;5113915;28;20499;-52
2022/03/26 02:44:14;;;;;;;66.70;32.43;;;;;;;;;;5095846;28;20413;-58
2022/03/26 02:46:40;;;;;;;70.43;32.70;;;;;;;;;;5095658;28;20428;-56
2022/03/26 02:49:06;;;;;;;68.50;33.37;;;;;;;;;;5095661;28;20413;-60
2022/03/26 02:51:35;;;;;;;62.97;31.80;;;;;;;;;;5114006;28;20417;-54
2022/03/26 02:54:01;;;;;;;74.70;35.40;;;;;;;;;;5113837;28;20405;-58
2022/03/26 02:56:27;;;;;;;67.60;32.10;;;;;;;;;;5113776;28;20544;-54
2022/03/26 02:58:53;;;;;;;62.70;32.63;;;;;;;;;;5113843;28;20469;-58
2022/03/26 03:01:20;;;;;;;68.23;31.77;;;;;;;;;;5095664;28;20477;-58
2022/03/26 03:03:46;;;;;;;62.57;31.70;;;;;;;;;;5113741;28;20419;-57
2022/03/26 03:06:12;;;;;;;61.10;31.57;;;;;;;;;;5113432;28;20906;-57
2022/03/26 03:08:38;;;;;;;68.33;31.07;;;;;;;;;;5113559;28;20465;-60
2022/03/26 03:11:04;;;;;;;76.33;33.03;;;;;;;;;;5113566;28;20417;-56
2022/03/26 03:13:30;;;;;;;60.53;30.23;;;;;;;;;;5113505;28;20407;-59
2022/03/26 03:15:58;;;;;;;59.60;30.47;;;;;;;;;;5113559;28;20559;-58
2022/03/26 03:18:24;;;;;;;65.23;31.60;;;;;;;;;;5113379;28;20941;-54
2022/03/26 03:20:53;;;;;;;63.33;31.10;;;;;;;;;;5113440;28;20781;-53
2022/03/26 03:23:19;;;;;;;61.20;30.17;;;;;;;;;;5113329;28;20397;-54
2022/03/26 03:25:45;;;;;;;60.30;29.53;;;;;;;;;;5113314;28;20400;-55
2022/03/26 03:28:14;;;;;;;65.07;30.70;;;;;;;;;;5094968;28;20473;-54
2022/03/26 03:30:41;;;;;;;63.27;29.97;;;;;;;;;;5113156;28;20404;-57
2022/03/26 03:33:07;;;;;;;59.27;29.73;;;;;;;;;;5113271;28;20444;-53
2022/03/26 03:35:33;;;;;;;63.57;29.97;;;;;;;;;;5113159;28;20448;-54
2022/03/26 03:37:59;;;;;;;68.57;32.80;;;;;;;;;;5094733;28;20474;-55
2022/03/26 03:40:25;;;;;;;57.00;29.47;;;;;;;;;;5113229;28;20404;-54
2022/03/26 03:42:53;;;;;;;59.13;28.67;;;;;;;;;;5113037;28;20412;-55
2022/03/26 03:45:20;;;;;;;63.17;30.47;;;;;;;;;;5113042;28;20416;-55
2022/03/26 03:47:46;;;;;;;65.47;30.77;;;;;;;;;;5113065;28;20404;-56
2022/03/26 03:50:12;;;;;;;70.40;30.87;;;;;;;;;;5112926;28;20405;-55
2022/03/26 03:52:38;;;;;;;68.93;31.40;;;;;;;;;;5112903;28;20506;-58
2022/03/26 03:55:04;;;;;;;62.97;29.93;;;;;;;;;;5112965;28;20405;-57
2022/03/26 03:57:30;;;;;;;69.57;32.70;;;;;;;;;;5112982;28;20477;-54
2022/03/26 03:59:56;;;;;;;69.43;30.83;;;;;;;;;;5113116;28;20841;-57
2022/03/26 04:02:22;;;;;;;60.10;30.10;;;;;;;;;;5113027;28;20769;-58
2022/03/26 04:04:48;;;;;;;70.53;30.00;;;;;;;;;;5112947;28;20404;-55
2022/03/26 04:07:14;;;;;;;67.13;31.13;;;;;;;;;;5112785;28;20405;-58
2022/03/26 04:09:40;;;;;;;72.07;30.13;;;;;;;;;;5112765;28;20950;-57
2022/03/26 04:12:06;;;;;;;84.27;32.27;;;;;;;;;;5094514;28;20456;-53
2022/03/26 04:14:33;;;;;;;71.47;31.13;;;;;;;;;;5112816;28;20433;-54
2022/03/26 04:16:59;;;;;;;72.90;30.40;;;;;;;;;;5112761;28;20507;-57
2022/03/26 04:19:26;;;;;;;64.57;31.00;;;;;;;;;;5114761;28;20484;-54
2022/03/26 04:21:52;;;;;;;74.57;31.37;;;;;;;;;;5098391;28;20954;-59
2022/03/26 04:24:18;;;;;;;73.67;30.77;;;;;;;;;;5116872;28;20835;-55
2022/03/26 04:26:44;;;;;;;66.87;30.97;;;;;;;;;;5116786;28;20419;-59
2022/03/26 04:29:10;;;;;;;72.20;30.40;;;;;;;;;;5116701;28;20838;-57
2022/03/26 04:31:36;;;;;;;70.30;30.60;;;;;;;;;;5116723;28;20796;-59
2022/03/26 04:34:02;;;;;;;68.23;31.20;;;;;;;;;;5116622;28;20405;-58
2022/03/26 04:36:29;;;;;;;65.93;31.50;;;;;;;;;;5116481;28;20496;-59
2022/03/26 04:38:55;;;;;;;61.20;30.27;;;;;;;;;;5116707;28;20411;-59
2022/03/26 04:41:25;;;;;;;64.40;30.83;;;;;;;;;;5116428;28;20408;-60
2022/03/26 04:43:51;;;;;;;58.63;28.77;;;;;;;;;;5116322;28;20404;-58
2022/03/26 04:46:20;;;;;;;61.43;29.10;;;;;;;;;;5097962;28;20413;-54
2022/03/26 04:48:47;;;;;;;58.90;30.03;;;;;;;;;;5116178;28;20433;-55
2022/03/26 04:51:13;;;;;;;73.10;31.57;;;;;;;;;;5116339;28;20489;-51
2022/03/26 04:53:39;;;;;;;65.87;28.90;;;;;;;;;;5116124;28;20496;-55
2022/03/26 04:56:05;;;;;;;63.93;30.83;;;;;;;;;;5116109;28;20518;-56
2022/03/26 04:58:32;;;;;;;60.00;30.53;;;;;;;;;;5116146;28;20412;-54
2022/03/26 05:00:59;;;;;;;72.27;29.60;;;;;;;;;;5116105;28;20478;-55
2022/03/26 05:03:28;;;;;;;64.53;30.70;;;;;;;;;;5116141;28;20738;-56
2022/03/26 05:05:54;;;;;;;58.10;29.20;;;;;;;;;;5097855;28;20473;-54
2022/03/26 05:08:20;;;;;;;67.40;30.77;;;;;;;;;;5091492;28;20421;-59
2022/03/26 05:10:46;;;;;;;67.67;29.23;;;;;;;;;;5077251;28;20425;-55
2022/03/26 05:13:12;;;;;;;62.87;29.07;;;;;;;;;;5077304;28;20809;-58
2022/03/26 05:15:38;;;;;;;65.13;30.30;;;;;;;;;;5095279;28;20854;-57
2022/03/26 05:18:04;;;;;;;61.50;29.17;;;;;;;;;;5076974;28;20422;-57
2022/03/26 05:20:30;;;;;;;62.87;28.87;;;;;;;;;;5095332;28;20902;-58
2022/03/26 05:22:56;;;;;;;66.93;29.13;;;;;;;;;;5095468;28;20949;-58
2022/03/26 05:25:22;;;;;;;63.40;28.40;;;;;;;;;;5095334;28;20417;-55
2022/03/26 05:27:52;;;;;;;62.67;30.30;;;;;;;;;;5077002;28;20429;-56
2022/03/26 05:30:19;;;;;;;60.13;28.73;;;;;;;;;;5093867;28;20853;-56
2022/03/26 05:32:48;;;;;;;70.60;29.70;;;;;;;;;;5095050;28;20472;-56
2022/03/26 05:35:15;;;;;;;57.80;28.93;;;;;;;;;;5094783;28;20759;-53
2022/03/26 05:37:41;;;;;;;69.53;29.40;;;;;;;;;;5094894;28;20807;-55
2022/03/26 05:40:08;;;;;;;69.67;29.13;;;;;;;;;;5094949;28;20451;-57
2022/03/26 05:42:35;;;;;;;54.63;28.20;;;;;;;;;;5094989;28;20460;-52
2022/03/26 05:45:04;;;;;;;56.20;26.53;;;;;;;;;;5076532;28;20478;-57
2022/03/26 05:47:31;;;;;;;54.67;28.70;;;;;;;;;;5094585;28;20410;-54
2022/03/26 05:49:57;;;;;;;70.70;30.37;;;;;;;;;;5094911;28;20409;-55
2022/03/26 05:52:23;;;;;;;63.80;29.13;;;;;;;;;;5094765;28;20500;-58
2022/03/26 05:54:49;;;;;;;61.07;29.20;;;;;;;;;;5094608;28;20442;-57
2022/03/26 05:57:15;;;;;;;69.43;30.03;;;;;;;;;;5094465;28;20469;-58
2022/03/26 05:59:41;;;;;;;58.27;27.77;;;;;;;;;;5076342;28;20410;-57
2022/03/26 06:02:10;;;;;;;56.97;28.73;;;;;;;;;;5094508;28;20409;-56
2022/03/26 06:04:36;;;;;;;62.43;29.93;;;;;;;;;;5076302;28;20490;-52
2022/03/26 06:07:02;;;;;;;72.80;29.40;;;;;;;;;;5094393;28;20549;-56
2022/03/26 06:09:28;;;;;;;53.73;27.43;;;;;;;;;;5094378;28;20767;-54
2022/03/26 06:11:55;;;;;;;56.40;27.43;;;;;;;;;;5094344;28;20410;-57
2022/03/26 06:14:21;;;;;;;63.90;29.53;;;;;;;;;;5075969;28;20422;-55
2022/03/26 06:16:48;;;;;;;76.67;30.57;;;;;;;;;;5075879;28;20509;-55
2022/03/26 06:19:17;;;;;;;56.93;28.03;;;;;;;;;;5093958;28;20821;-56
2022/03/26 06:21:43;;;;;;;59.40;29.67;;;;;;;;;;5094004;28;20942;-56
2022/03/26 06:24:09;;;;;;;58.90;28.70;;;;;;;;;;5094073;28;20463;-57
2022/03/26 06:26:37;;;;;;;58.67;29.57;;;;;;;;;;5094081;28;20410;-58
2022/03/26 06:29:03;;;;;;;74.90;27.83;;;;;;;;;;5093801;28;20413;-57
2022/03/26 06:31:29;;;;;;;54.10;28.20;;;;;;;;;;5093935;28;20800;-58
2022/03/26 06:33:55;;;;;;;55.37;28.27;;;;;;;;;;5075727;28;20426;-55
2022/03/26 06:36:22;;;;;;;62.53;29.23;;;;;;;;;;5093608;28;20465;-58
2022/03/26 06:38:48;;;;;;;54.80;27.93;;;;;;;;;;5075494;28;20417;-58
2022/03/26 06:41:16;;;;;;;63.20;27.50;;;;;;;;;;5093296;28;20463;-54
2022/03/26 06:43:43;;;;;;;57.67;28.63;;;;;;;;;;5093541;28;20412;-54
2022/03/26 06:46:09;;;;;;;58.07;28.50;;;;;;;;;;5075221;28;20984;-55
2022/03/26 06:48:35;;;;;;;59.80;28.53;;;;;;;;;;5093269;28;20402;-53
2022/03/26 06:51:06;;;;;;;65.67;29.07;;;;;;;;;;5075146;28;20422;-55
2022/03/26 06:53:35;;;;;;;64.23;29.60;;;;;;;;;;5093384;28;20759;-57
2022/03/26 06:56:01;;;;;;;65.43;28.30;;;;;;;;;;5075078;28;20475;-59
2022/03/26 06:58:31;;;;;;;61.40;28.80;;;;;;;;;;5093347;28;20858;-54
2022/03/26 07:00:58;;;;;;;60.50;28.93;;;;;;;;;;5093500;28;20926;-56
2022/03/26 07:03:25;;;;;;;60.90;30.13;;;;;;;;;;5093374;28;20406;-54
2022/03/26 07:05:51;;;;;;;59.20;28.17;;;;;;;;;;5093096;28;20405;-55
2022/03/26 07:08:17;;;;;;;60.53;27.90;;;;;;;;;;5093191;28;20812;-58
2022/03/26 07:10:45;;;;;;;62.47;28.93;;;;;;;;;;5093110;28;20769;-52
2022/03/26 07:13:11;;;;;;;49.63;27.50;;;;;;;;;;5093099;28;20409;-55
2022/03/26 07:15:37;;;;;;;67.07;31.20;;;;;;;;;;5092972;28;20464;-52
2022/03/26 07:18:03;;;;;;;63.13;29.90;;;;;;;;;;5092788;28;20406;-53
2022/03/26 07:20:29;;;;;;;63.13;30.40;;;;;;;;;;5092800;28;20410;-52
2022/03/26 07:22:55;;;;;;;59.87;29.53;;;;;;;;;;5075005;28;20482;-55
2022/03/26 07:25:22;;;;;;;58.17;29.57;;;;;;;;;;5092835;28;20504;-56
2022/03/26 07:27:48;;;;;;;62.60;29.37;;;;;;;;;;5092714;28;20902;-53
2022/03/26 07:30:14;;;;;;;60.93;28.40;;;;;;;;;;5092910;28;20406;-54
2022/03/26 07:32:40;;;;;;;56.03;28.70;;;;;;;;;;5092700;28;20417;-54
2022/03/26 07:35:06;;;;;;;56.90;29.30;;;;;;;;;;5092680;28;20409;-56
2022/03/26 07:37:32;;;;;;;62.63;30.47;;;;;;;;;;5092754;28;20418;-59
2022/03/26 07:39:59;;;;;;;60.93;29.10;;;;;;;;;;5092444;28;20876;-55
2022/03/26 07:42:25;;;;;;;55.10;29.77;;;;;;;;;;5092968;28;20500;-55
2022/03/26 07:44:51;;;;;;;53.20;28.80;;;;;;;;;;5092782;28;20459;-54
2022/03/26 07:47:17;;;;;;;64.63;29.53;;;;;;;;;;5092684;28;20817;-54
2022/03/26 07:49:44;;;;;;;69.50;29.40;;;;;;;;;;5092645;28;20413;-58
2022/03/26 07:52:10;;;;;;;61.33;30.20;;;;;;;;;;5092672;28;20410;-54
2022/03/26 07:54:36;;;;;;;50.70;29.27;;;;;;;;;;5092006;28;20906;-59
2022/03/26 07:57:02;;;;;;;59.33;27.93;;;;;;;;;;5092539;28;20501;-57
2022/03/26 07:59:28;;;;;;;51.60;27.90;;;;;;;;;;5092703;28;20866;-58
2022/03/26 08:01:54;;;;;;;64.53;29.63;;;;;;;;;;5092897;28;20408;-56
2022/03/26 08:04:20;;;;;;;52.37;27.30;;;;;;;;;;5092407;28;20405;-57
2022/03/26 08:06:49;;;;;;;53.20;25.93;;;;;;;;;;5074424;28;20406;-57
2022/03/26 08:09:15;;;;;;;57.87;28.43;;;;;;;;;;5091395;28;20414;-57
2022/03/26 08:11:42;;;;;;;58.33;28.47;;;;;;;;;;5074214;28;20434;-55
2022/03/26 08:14:08;;;;;;;65.13;28.83;;;;;;;;;;5092227;28;20409;-60
2022/03/26 08:16:35;;;;;;;61.43;27.67;;;;;;;;;;5090216;28;20473;-58
2022/03/26 08:19:01;;;;;;;52.53;26.57;;;;;;;;;;5091380;28;20460;-57
2022/03/26 08:21:27;;;;;;;64.97;27.43;;;;;;;;;;5092521;28;20405;-56
2022/03/26 08:23:54;;;;;;;65.83;27.80;;;;;;;;;;5092575;28;20433;-57
2022/03/26 08:26:22;;;;;;;59.10;27.40;;;;;;;;;;5092492;28;20413;-51
2022/03/26 08:28:51;;;;;;;57.33;27.93;;;;;;;;;;5092251;28;20940;-55
2022/03/26 08:31:18;;;;;;;68.40;28.63;;;;;;;;;;5092252;28;20414;-55
2022/03/26 08:33:45;;;;;;;59.93;29.63;;;;;;;;;;5092190;28;20906;-56
2022/03/26 08:36:11;;;;;;;59.13;29.30;;;;;;;;;;5092147;28;20548;-57
2022/03/26 08:38:38;;;;;;;61.50;28.93;;;;;;;;;;5092026;28;20410;-58
2022/03/26 08:41:04;;;;;;;51.67;25.97;;;;;;;;;;5092076;28;20756;-57
2022/03/26 08:43:33;;;;;;;59.30;28.83;;;;;;;;;;5092167;28;20886;-53
2022/03/26 08:45:59;;;;;;;54.50;27.90;;;;;;;;;;5092180;28;20425;-53
2022/03/26 08:48:25;;;;;;;67.43;27.40;;;;;;;;;;5092463;28;20463;-55
2022/03/26 08:50:52;;;;;;;60.40;29.30;;;;;;;;;;5073851;28;20786;-55
2022/03/26 08:53:18;;;;;;;49.23;27.87;;;;;;;;;;5074008;28;20413;-54
2022/03/26 08:55:44;;;;;;;56.53;28.70;;;;;;;;;;5073763;28;20506;-59
2022/03/26 08:58:13;;;;;;;54.77;27.90;;;;;;;;;;5073779;28;20425;-56
2022/03/26 09:00:39;;;;;;;63.07;29.10;;;;;;;;;;5091803;28;20406;-57
2022/03/26 09:03:05;;;;;;;54.53;27.10;;;;;;;;;;5092171;28;20409;-56
2022/03/26 09:05:31;;;;;;;53.53;28.07;;;;;;;;;;5093815;28;20983;-56
2022/03/26 09:07:57;;;;;;;55.90;28.10;;;;;;;;;;5095479;28;20467;-52
2022/03/26 09:10:23;;;;;;;56.83;26.77;;;;;;;;;;5095587;28;20410;-57
2022/03/26 09:12:49;;;;;;;49.73;27.30;;;;;;;;;;5095456;28;20892;-54
2022/03/26 09:15:16;;;;;;;46.47;25.50;;;;;;;;;;5095250;28;20406;-55
2022/03/26 09:17:42;;;;;;;51.10;26.67;;;;;;;;;;5095391;28;20430;-54
2022/03/26 09:20:09;;;;;;;49.57;25.23;;;;;;;;;;5095060;28;20453;-53
2022/03/26 09:22:36;;;;;;;47.90;25.03;;;;;;;;;;5095268;28;20983;-55
2022/03/26 09:25:02;;;;;;;51.00;26.10;;;;;;;;;;5095280;28;20426;-59
2022/03/26 09:27:29;;;;;;;45.07;22.03;;;;;;;;;;5095146;28;20402;-55
2022/03/26 09:29:55;;;;;;;44.23;23.90;;;;;;;;;;5095174;28;20958;-58
2022/03/26 09:32:22;;;;;;;53.30;26.60;;;;;;;;;;5095008;28;20401;-56
2022/03/26 09:34:48;;;;;;;49.23;24.73;;;;;;;;;;5076834;28;20918;-56
2022/03/26 09:37:15;;;;;;;51.83;27.17;;;;;;;;;;5094889;28;20465;-57
2022/03/26 09:39:41;;;;;;;48.67;26.50;;;;;;;;;;5094919;28;20406;-53
2022/03/26 09:42:11;;;;;;;47.17;23.37;;;;;;;;;;5077017;28;20418;-54
2022/03/26 09:44:37;;;;;;;44.97;24.47;;;;;;;;;;5094771;28;20437;-54
2022/03/26 09:47:07;;;;;;;47.10;25.20;;;;;;;;;;5094748;28;20478;-55
2022/03/26 09:49:34;;;;;;;44.50;25.30;;;;;;;;;;5094757;28;20489;-56
2022/03/26 09:52:00;;;;;;;47.63;25.53;;;;;;;;;;5094599;28;20416;-54
2022/03/26 09:54:26;;;;;;;45.97;24.53;;;;;;;;;;5094726;28;20770;-53
2022/03/26 09:56:52;;;;;;;45.20;23.30;;;;;;;;;;5076585;28;20473;-55
2022/03/26 09:59:22;;;;;;;48.63;23.87;;;;;;;;;;5094596;28;20405;-54
2022/03/26 10:01:48;;;;;;;44.73;22.63;;;;;;;;;;5094485;28;20410;-54
2022/03/26 10:04:18;;;;;;;42.10;21.97;;;;;;;;;;5094485;28;20759;-54
2022/03/26 10:07:01;;;;;;;42.07;24.80;;;;;;;;;;5094370;28;20736;-55
2022/03/26 10:09:37;;;;;;;51.83;23.50;;;;;;;;;;5094294;28;20405;-57
2022/03/26 10:12:07;;;;;;;44.67;24.17;;;;;;;;;;5076294;28;20433;-56
2022/03/26 10:14:52;;;;;;;43.27;25.00;;;;;;;;;;5094222;28;20409;-60
2022/03/26 10:17:18;;;;;;;43.03;20.70;;;;;;;;;;5093455;28;20989;-53
2022/03/26 10:19:48;;;;;;;43.30;22.97;;;;;;;;;;5093931;28;20463;-55
2022/03/26 10:22:25;;;;;;;48.30;24.40;;;;;;;;;;5094095;28;20459;-55
2022/03/26 10:24:51;;;;;;;39.67;21.97;;;;;;;;;;5093934;28;20415;-56
2022/03/26 10:27:18;;;;;;;41.87;21.93;;;;;;;;;;5093955;28;20406;-57
2022/03/26 10:29:53;;;;;;;38.97;21.50;;;;;;;;;;5093812;28;20405;-55
2022/03/26 10:32:38;;;;;;;44.43;21.90;;;;;;;;;;5093978;28;20412;-56
2022/03/26 10:35:05;;;;;;;37.67;20.30;;;;;;;;;;5093803;28;20763;-56
2022/03/26 10:37:31;;;;;;;36.80;17.50;;;;;;;;;;5093811;28;20826;-56
2022/03/26 10:39:57;;;;;;;32.00;17.77;;;;;;;;;;5093719;28;20406;-55
2022/03/26 10:42:30;;;;;;;29.03;15.53;;;;;;;;;;5093737;28;20424;-55
2022/03/26 10:44:59;;;;;;;27.60;17.10;;;;;;;;;;5093888;28;20466;-61
2022/03/26 10:47:29;;;;;;;33.30;18.70;;;;;;;;;;5093745;28;20907;-59
2022/03/26 10:49:56;;;;;;;26.70;15.53;;;;;;;;;;5093690;28;20904;-59
2022/03/26 10:52:22;;;;;;;26.10;14.67;;;;;;;;;;5075647;28;20421;-56
2022/03/26 10:54:49;;;;;;;27.20;16.80;;;;;;;;;;5093410;28;20418;-56
2022/03/26 10:57:16;;;;;;;24.30;15.93;;;;;;;;;;5093378;28;20615;-57
2022/03/26 10:59:43;;;;;;;24.30;16.00;;;;;;;;;;5093297;28;20405;-57
2022/03/26 11:02:09;;;;;;;26.20;15.13;;;;;;;;;;5093384;28;20967;-57
2022/03/26 11:04:35;;;;;;;28.10;16.60;;;;;;;;;;5093291;28;20494;-54
2022/03/26 11:07:02;;;;;;;19.53;14.03;;;;;;;;;;5093541;28;20421;-53
2022/03/26 11:09:28;;;;;;;19.30;14.20;;;;;;;;;;5093266;28;20409;-56
2022/03/26 11:11:58;;;;;;;23.53;13.63;;;;;;;;;;5093227;28;20420;-53
2022/03/26 11:14:26;;;;;;;24.20;14.90;;;;;;;;;;5093366;28;20808;-59
2022/03/26 11:17:02;;;;;;;21.87;13.23;;;;;;;;;;5093071;28;20465;-54
2022/03/26 11:19:47;;;;;;;15.43;11.70;;;;;;;;;;5092897;28;20976;-53
2022/03/26 11:22:21;;;;;;;18.33;12.30;;;;;;;;;;5093178;28;20881;-57
2022/03/26 11:24:59;;;;;;;17.50;12.30;;;;;;;;;;5092958;28;20463;-57
2022/03/26 11:27:25;;;;;;;20.77;12.33;;;;;;;;;;5092974;28;20913;-54
2022/03/26 11:30:09;;;;;;;14.87;10.77;;;;;;;;;;5073976;28;20478;-59
2022/03/26 11:32:43;;;;;;;29.60;11.10;;;;;;;;;;5092619;28;20405;-54
2022/03/26 11:35:10;;;;;;;15.13;11.27;;;;;;;;;;5092561;28;21040;-57
2022/03/26 11:37:49;;;;;;;17.40;11.03;;;;;;;;;;5074422;28;20422;-55
2022/03/26 11:40:35;;;;;;;20.60;12.47;;;;;;;;;;5092835;28;20417;-58
2022/03/26 11:43:01;;;;;;;15.83;11.60;;;;;;;;;;5092609;28;20398;-59
2022/03/26 11:51:19;;;;;;;19.03;12.17;;;;;;;;;;5077685;28;20401;-57
2022/03/26 11:53:48;;;;;;;17.30;12.70;;;;;;;;;;5092490;28;20409;-55
2022/03/26 11:56:24;;;;;;;14.60;11.53;;;;;;;;;;5092590;28;20465;-58
2022/03/26 11:59:11;;;;;;;17.13;11.27;;;;;;;;;;5092548;28;20530;-57
2022/03/26 12:01:38;;;;;;;17.10;10.87;;;;;;;;;;5061496;28;20421;-57
2022/03/26 12:04:11;;;;;;;17.97;11.93;;;;;;;;;;5092378;28;20632;-58
2022/03/26 12:06:43;;;;;;;14.27;11.13;;;;;;;;;;5092450;28;20416;-57
2022/03/26 12:09:11;;;;;;;15.27;11.43;;;;;;;;;;5074382;28;20421;-54
2022/03/26 12:11:37;;;;;;;14.83;11.30;;;;;;;;;;5074360;28;20881;-56
2022/03/26 12:14:04;;;;;;;17.07;11.60;;;;;;;;;;5092341;28;20409;-57
2022/03/26 12:16:49;;;;;;;14.10;10.90;;;;;;;;;;5092484;28;20461;-56
2022/03/26 12:19:34;;;;;;;16.17;11.67;;;;;;;;;;5092159;28;20578;-60
2022/03/26 12:22:17;;;;;;;10.60;8.23;;;;;;;;;;5092144;28;20856;-62
2022/03/26 12:24:43;;;;;;;10.20;8.67;;;;;;;;;;5092374;28;20437;-58
2022/03/26 12:27:09;;;;;;;15.30;9.10;;;;;;;;;;5092386;28;20433;-59
2022/03/26 12:29:39;;;;;;;11.50;9.07;;;;;;;;;;5092242;28;20402;-58
2022/03/26 12:32:05;;;;;;;10.90;9.50;;;;;;;;;;5092416;28;20406;-59
2022/03/26 12:34:31;;;;;;;12.13;9.30;;;;;;;;;;5092293;28;20451;-55
2022/03/26 12:37:01;;;;;;;12.33;10.10;;;;;;;;;;5107904;28;20475;-54
2022/03/26 12:39:27;;;;;;;11.80;7.73;;;;;;;;;;5092457;28;20543;-56
2022/03/26 12:41:54;;;;;;;13.93;9.63;;;;;;;;;;5096427;28;20417;-60
2022/03/26 12:44:21;;;;;;;15.50;9.07;;;;;;;;;;5096061;28;20758;-59
2022/03/26 12:46:48;;;;;;;20.87;11.67;;;;;;;;;;5095932;28;20418;-58
2022/03/26 12:49:18;;;;;;;12.27;9.20;;;;;;;;;;5096148;28;20856;-55
2022/03/26 12:51:45;;;;;;;9.80;8.20;;;;;;;;;;5095824;28;20430;-54
2022/03/26 12:54:13;;;;;;;13.07;7.70;;;;;;;;;;5095768;28;20462;-53
2022/03/26 12:56:39;;;;;;;14.40;7.60;;;;;;;;;;5095553;28;20465;-53
2022/03/26 12:59:05;;;;;;;8.47;7.57;;;;;;;;;;5095562;28;20406;-56
2022/03/26 13:01:31;;;;;;;9.10;8.03;;;;;;;;;;5111818;28;20425;-57
2022/03/26 13:03:57;;;;;;;12.17;8.00;;;;;;;;;;5095589;28;20402;-55
2022/03/26 13:06:24;;;;;;;9.67;7.77;;;;;;;;;;5095595;28;20492;-55
2022/03/26 13:08:54;;;;;;;9.97;7.20;;;;;;;;;;5095355;28;20406;-57
2022/03/26 13:11:21;;;;;;;8.80;6.93;;;;;;;;;;5095349;28;20771;-61
2022/03/26 13:13:48;;;;;;;9.80;7.40;;;;;;;;;;5095454;28;20747;-60
2022/03/26 13:16:20;;;;;;;11.73;8.20;;;;;;;;;;5095251;28;20500;-58
2022/03/26 13:18:54;;;;;;;8.50;6.70;;;;;;;;;;5095187;28;20457;-57
2022/03/26 13:21:20;;;;;;;11.23;6.57;;;;;;;;;;5111157;28;20417;-60
2022/03/26 13:23:52;;;;;;;8.30;7.50;;;;;;;;;;5095134;28;20774;-54
2022/03/26 13:26:18;;;;;;;10.20;7.57;;;;;;;;;;5095253;28;20410;-55
2022/03/26 13:28:44;;;;;;;7.87;6.73;;;;;;;;;;5110914;28;20883;-59
2022/03/26 13:31:21;;;;;;;7.27;6.60;;;;;;;;;;5095170;28;20434;-57
2022/03/26 13:33:47;;;;;;;12.20;7.73;;;;;;;;;;5094985;28;20849;-60
2022/03/26 13:36:13;;;;;;;13.87;9.37;;;;;;;;;;5094972;28;20495;-57
2022/03/26 13:38:41;;;;;;;20.73;8.60;;;;;;;;;;5094973;28;20425;-61
2022/03/26 13:41:20;;;;;;;16.07;9.17;;;;;;;;;;5110696;28;20500;-61
2022/03/26 13:43:48;;;;;;;14.60;8.50;;;;;;;;;;5094767;28;20401;-59
2022/03/26 13:46:14;;;;;;;9.57;7.73;;;;;;;;;;5094716;28;20402;-57
2022/03/26 13:48:50;;;;;;;12.40;8.13;;;;;;;;;;5094911;28;20428;-61
2022/03/26 13:51:17;;;;;;;11.53;9.03;;;;;;;;;;5093664;28;20398;-62
2022/03/26 13:53:43;;;;;;;13.17;9.27;;;;;;;;;;5094700;28;20418;-60
2022/03/26 13:56:10;;;;;;;11.47;8.57;;;;;;;;;;5094596;28;20763;-59
2022/03/26 13:58:37;;;;;;;12.07;9.37;;;;;;;;;;5094539;28;20756;-60
2022/03/26 14:01:07;;;;;;;12.77;8.87;;;;;;;;;;5094366;28;20429;-62
2022/03/26 14:03:39;;;;;;;16.13;8.60;;;;;;;;;;5094515;28;20421;-61
2022/03/26 14:06:05;;;;;;;11.83;9.53;;;;;;;;;;5094511;28;20463;-60
2022/03/26 14:08:37;;;;;;;11.07;8.40;;;;;;;;;;5094417;28;20899;-60
2022/03/26 14:11:03;;;;;;;11.87;8.43;;;;;;;;;;5094178;28;20414;-60
2022/03/26 14:13:29;;;;;;;12.73;8.37;;;;;;;;;;5094110;28;20410;-62
2022/03/26 14:15:55;;;;;;;14.87;9.53;;;;;;;;;;5094273;28;20469;-59
2022/03/26 14:18:21;;;;;;;12.77;9.47;;;;;;;;;;5109786;28;20501;-60
2022/03/26 14:20:48;;;;;;;12.77;10.13;;;;;;;;;;5094058;28;20413;-57
2022/03/26 14:23:14;;;;;;;11.30;9.57;;;;;;;;;;5075889;28;20414;-60
2022/03/26 14:25:41;;;;;;;14.57;10.70;;;;;;;;;;5093944;28;20443;-55